createdAt,value
2022-10-05T00:00:39.822Z,65.72
2022-10-05T00:01:39.956Z,65.73
2022-10-05T00:02:46.074Z,65.74
2022-10-05T00:03:39.797Z,65.73
2022-10-05T00:04:39.860Z,65.74
2022-10-05T00:05:39.759Z,65.76
2022-10-05T00:06:39.813Z,65.77
2022-10-05T00:07:45.997Z,65.77
2022-10-05T00:08:39.739Z,65.78
2022-10-05T00:09:39.729Z,65.79
2022-10-05T00:10:39.697Z,65.77
2022-10-05T00:11:39.729Z,65.77
2022-10-05T00:12:45.937Z,65.76
2022-10-05T00:13:39.659Z,65.79
2022-10-05T00:14:39.678Z,65.78
2022-10-05T00:15:39.608Z,65.79
2022-10-05T00:16:40.670Z,65.79
2022-10-05T00:17:39.634Z,65.79
2022-10-05T00:18:45.867Z,65.80
2022-10-05T00:19:39.590Z,65.78
2022-10-05T00:20:39.637Z,65.79
2022-10-05T00:21:39.596Z,65.78
2022-10-05T00:22:39.608Z,65.77
2022-10-05T00:23:39.524Z,65.76
2022-10-05T00:24:45.881Z,65.77
2022-10-05T00:25:39.500Z,65.76
2022-10-05T00:26:39.534Z,65.76
2022-10-05T00:27:45.845Z,65.74
2022-10-05T00:28:39.462Z,65.73
2022-10-05T00:29:39.553Z,65.72
2022-10-05T00:30:46.087Z,65.73
2022-10-05T00:31:39.536Z,65.75
2022-10-05T00:32:40.474Z,65.77
2022-10-05T00:33:39.414Z,65.78
2022-10-05T00:34:39.426Z,65.81
2022-10-05T00:35:39.511Z,65.82
2022-10-05T00:36:46.030Z,65.85
2022-10-05T00:37:39.652Z,65.86
2022-10-05T00:38:39.335Z,65.87
2022-10-05T00:39:39.340Z,65.85
2022-10-05T00:40:39.341Z,65.87
2022-10-05T00:41:39.356Z,65.87
2022-10-05T00:42:49.323Z,65.88
2022-10-05T00:43:39.298Z,65.88
2022-10-05T00:44:39.314Z,65.86
2022-10-05T00:45:39.703Z,65.86
2022-10-05T00:46:45.821Z,65.85
2022-10-05T00:47:39.217Z,65.84
2022-10-05T00:48:45.523Z,65.82
2022-10-05T00:49:39.198Z,65.81
2022-10-05T00:50:39.246Z,65.79
2022-10-05T00:51:39.208Z,65.81
2022-10-05T00:52:39.201Z,65.83
2022-10-05T00:53:45.414Z,65.82
2022-10-05T00:54:39.130Z,65.81
2022-10-05T00:55:39.087Z,65.80
2022-10-05T00:56:39.163Z,65.79
2022-10-05T00:57:39.075Z,65.79
2022-10-05T00:58:45.400Z,65.80
2022-10-05T00:59:39.093Z,65.78
2022-10-05T01:00:39.054Z,65.76
2022-10-05T01:01:39.302Z,65.77
2022-10-05T01:02:39.067Z,65.75
2022-10-05T01:03:39.023Z,65.75
2022-10-05T01:04:45.486Z,65.74
2022-10-05T01:05:39.009Z,65.73
2022-10-05T01:06:39.017Z,65.72
2022-10-05T01:07:38.995Z,65.72
2022-10-05T01:08:38.948Z,65.72
2022-10-05T01:09:38.979Z,65.72
2022-10-05T01:10:45.213Z,65.70
2022-10-05T01:11:38.951Z,65.68
2022-10-05T01:12:38.976Z,65.67
2022-10-05T01:13:38.909Z,65.66
2022-10-05T01:14:38.884Z,65.66
2022-10-05T01:15:45.134Z,65.66
2022-10-05T01:16:38.942Z,65.66
2022-10-05T01:17:38.833Z,65.61
2022-10-05T01:18:40.009Z,65.60
2022-10-05T01:19:38.842Z,65.55
2022-10-05T01:20:45.148Z,65.54
2022-10-05T01:21:38.809Z,65.52
2022-10-05T01:22:38.777Z,65.50
2022-10-05T01:23:38.760Z,65.52
2022-10-05T01:24:38.753Z,65.51
2022-10-05T01:25:38.736Z,65.51
2022-10-05T01:26:45.337Z,65.50
2022-10-05T01:27:38.725Z,65.49
2022-10-05T01:28:38.796Z,65.49
2022-10-05T01:29:38.793Z,65.48
2022-10-05T01:30:39.410Z,65.46
2022-10-05T01:31:45.391Z,65.46
2022-10-05T01:32:38.699Z,65.46
2022-10-05T01:33:38.683Z,65.46
2022-10-05T01:34:38.684Z,65.45
2022-10-05T01:35:38.654Z,65.45
2022-10-05T01:36:45.470Z,65.45
2022-10-05T01:37:38.603Z,65.43
2022-10-05T01:38:38.616Z,65.43
2022-10-05T01:39:38.568Z,65.44
2022-10-05T01:40:38.591Z,65.43
2022-10-05T01:41:46.772Z,65.42
2022-10-05T01:42:38.651Z,65.42
2022-10-05T01:43:38.524Z,65.43
2022-10-05T01:44:38.505Z,65.43
2022-10-05T01:45:38.550Z,65.44
2022-10-05T01:46:45.079Z,65.44
2022-10-05T01:47:38.529Z,65.43
2022-10-05T01:48:38.488Z,65.43
2022-10-05T01:49:38.480Z,65.45
2022-10-05T01:50:38.426Z,65.48
2022-10-05T01:51:44.776Z,65.50
2022-10-05T01:52:39.054Z,65.52
2022-10-05T01:53:38.410Z,65.53
2022-10-05T01:54:38.372Z,65.54
2022-10-05T01:55:38.370Z,65.55
2022-10-05T01:56:38.415Z,65.54
2022-10-05T01:57:44.622Z,65.54
2022-10-05T01:58:38.345Z,65.53
2022-10-05T01:59:38.283Z,65.53
2022-10-05T02:00:38.296Z,65.54
2022-10-05T02:01:38.308Z,65.57
2022-10-05T02:02:42.285Z,65.60
2022-10-05T02:03:45.343Z,65.64
2022-10-05T02:05:40.235Z,65.65
2022-10-05T02:06:38.717Z,65.66
2022-10-05T02:07:38.242Z,65.67
2022-10-05T02:08:38.527Z,65.69
2022-10-05T02:09:45.382Z,65.70
2022-10-05T02:10:38.175Z,65.74
2022-10-05T02:11:38.361Z,65.73
2022-10-05T02:12:38.127Z,65.72
2022-10-05T02:13:42.197Z,65.73
2022-10-05T02:14:38.111Z,65.74
2022-10-05T02:15:44.436Z,65.73
2022-10-05T02:16:38.101Z,65.74
2022-10-05T02:17:38.120Z,65.73
2022-10-05T02:18:38.078Z,65.77
2022-10-05T02:19:38.104Z,65.77
2022-10-05T02:20:38.077Z,65.79
2022-10-05T02:21:44.372Z,65.79
2022-10-05T02:22:38.026Z,65.80
2022-10-05T02:23:38.023Z,65.82
2022-10-05T02:24:38.021Z,65.83
2022-10-05T02:25:38.031Z,65.82
2022-10-05T02:26:44.607Z,65.83
2022-10-05T02:27:37.946Z,65.81
2022-10-05T02:28:38.010Z,65.80
2022-10-05T02:29:38.383Z,65.80
2022-10-05T02:30:38.203Z,65.81
2022-10-05T02:31:38.062Z,65.81
2022-10-05T02:32:44.173Z,65.81
2022-10-05T02:33:37.882Z,65.81
2022-10-05T02:34:37.871Z,65.79
2022-10-05T02:35:37.937Z,65.82
2022-10-05T02:36:37.962Z,65.81
2022-10-05T02:37:37.864Z,65.84
2022-10-05T02:38:44.483Z,65.84
2022-10-05T02:39:37.817Z,65.85
2022-10-05T02:40:37.833Z,65.87
2022-10-05T02:41:37.817Z,65.87
2022-10-05T02:42:38.130Z,65.87
2022-10-05T02:43:41.660Z,65.85
2022-10-05T02:44:44.388Z,65.83
2022-10-05T02:45:37.769Z,65.83
2022-10-05T02:46:37.722Z,65.83
2022-10-05T02:47:37.715Z,65.86
2022-10-05T02:48:37.689Z,65.87
2022-10-05T02:49:37.709Z,65.88
2022-10-05T02:50:45.462Z,65.88
2022-10-05T02:51:37.683Z,65.90
2022-10-05T02:52:37.685Z,65.91
2022-10-05T02:53:37.617Z,65.89
2022-10-05T02:54:37.600Z,65.89
2022-10-05T02:55:44.210Z,65.87
2022-10-05T02:56:37.647Z,65.87
2022-10-05T02:57:37.565Z,65.87
2022-10-05T02:58:37.592Z,65.87
2022-10-05T02:59:37.557Z,65.87
2022-10-05T03:00:43.899Z,65.89
2022-10-05T03:01:37.754Z,65.88
2022-10-05T03:02:37.519Z,65.88
2022-10-05T03:03:39.408Z,65.90
2022-10-05T03:04:37.487Z,65.90
2022-10-05T03:05:37.488Z,65.88
2022-10-05T03:06:44.119Z,65.87
2022-10-05T03:07:37.443Z,65.89
2022-10-05T03:08:37.456Z,65.86
2022-10-05T03:09:37.432Z,65.85
2022-10-05T03:10:37.546Z,65.82
2022-10-05T03:11:44.914Z,65.79
2022-10-05T03:12:37.428Z,65.78
2022-10-05T03:13:37.384Z,65.77
2022-10-05T03:14:37.406Z,65.74
2022-10-05T03:15:38.162Z,65.72
2022-10-05T03:16:44.535Z,65.69
2022-10-05T03:17:37.357Z,65.66
2022-10-05T03:18:37.318Z,65.64
2022-10-05T03:19:37.284Z,65.60
2022-10-05T03:20:37.279Z,65.57
2022-10-05T03:21:37.315Z,65.54
2022-10-05T03:22:43.586Z,65.53
2022-10-05T03:23:37.242Z,65.51
2022-10-05T03:24:37.512Z,65.49
2022-10-05T03:25:37.326Z,65.45
2022-10-05T03:26:37.727Z,65.43
2022-10-05T03:27:37.300Z,65.42
2022-10-05T03:28:43.489Z,65.40
2022-10-05T03:29:37.161Z,65.39
2022-10-05T03:30:38.101Z,65.40
2022-10-05T03:31:37.203Z,65.37
2022-10-05T03:32:37.286Z,65.36
2022-10-05T03:33:43.494Z,65.36
2022-10-05T03:34:37.179Z,65.35
2022-10-05T03:35:37.186Z,65.36
2022-10-05T03:36:37.127Z,65.34
2022-10-05T03:37:37.109Z,65.30
2022-10-05T03:38:37.073Z,65.29
2022-10-05T03:39:43.381Z,65.25
2022-10-05T03:40:37.094Z,65.23
2022-10-05T03:41:37.079Z,65.22
2022-10-05T03:42:37.033Z,65.21
2022-10-05T03:43:38.871Z,65.20
2022-10-05T03:44:37.007Z,65.20
2022-10-05T03:45:43.276Z,65.17
2022-10-05T03:46:37.383Z,65.16
2022-10-05T03:47:36.962Z,65.14
2022-10-05T03:48:37.030Z,65.11
2022-10-05T03:49:36.921Z,65.09
2022-10-05T03:50:36.904Z,65.08
2022-10-05T03:51:43.217Z,65.04
2022-10-05T03:52:37.270Z,65.02
2022-10-05T03:53:37.020Z,65.02
2022-10-05T03:54:37.958Z,65.02
2022-10-05T03:55:37.041Z,65.04
2022-10-05T03:56:43.581Z,65.03
2022-10-05T03:57:36.947Z,65.06
2022-10-05T03:58:37.441Z,65.05
2022-10-05T03:59:38.104Z,65.04
2022-10-05T04:00:36.944Z,65.05
2022-10-05T04:01:43.398Z,65.06
2022-10-05T04:02:37.249Z,65.05
2022-10-05T04:03:37.758Z,65.05
2022-10-05T04:04:39.037Z,65.03
2022-10-05T04:05:37.515Z,65.05
2022-10-05T04:06:43.336Z,65.05
2022-10-05T04:07:36.795Z,65.04
2022-10-05T04:08:40.577Z,65.03
2022-10-05T04:09:39.834Z,65.04
2022-10-05T04:10:36.744Z,65.03
2022-10-05T04:11:43.057Z,65.01
2022-10-05T04:12:37.335Z,65.00
2022-10-05T04:13:36.804Z,64.97
2022-10-05T04:14:37.828Z,64.96
2022-10-05T04:15:36.764Z,64.96
2022-10-05T04:16:45.327Z,64.97
2022-10-05T04:17:36.888Z,64.96
2022-10-05T04:18:37.887Z,64.95
2022-10-05T04:19:40.298Z,64.95
2022-10-05T04:20:37.871Z,64.93
2022-10-05T04:21:36.807Z,64.90
2022-10-05T04:22:43.239Z,64.90
2022-10-05T04:23:37.720Z,64.88
2022-10-05T04:24:38.873Z,64.89
2022-10-05T04:25:37.738Z,64.90
2022-10-05T04:26:36.838Z,64.91
2022-10-05T04:27:43.825Z,64.91
2022-10-05T04:28:36.657Z,64.91
2022-10-05T04:29:36.499Z,64.93
2022-10-05T04:30:36.693Z,64.95
2022-10-05T04:31:59.667Z,64.95
2022-10-05T04:32:43.743Z,64.97
2022-10-05T04:33:37.509Z,64.98
2022-10-05T04:34:36.790Z,64.95
2022-10-05T04:35:37.668Z,64.95
2022-10-05T04:36:36.658Z,64.94
2022-10-05T04:37:37.073Z,64.91
2022-10-05T04:38:43.898Z,64.91
2022-10-05T04:39:37.280Z,64.90
2022-10-05T04:40:36.428Z,64.88
2022-10-05T04:41:36.285Z,64.88
2022-10-05T04:42:36.828Z,64.88
2022-10-05T04:43:36.290Z,64.87
2022-10-05T04:44:42.929Z,64.86
2022-10-05T04:45:36.926Z,64.85
2022-10-05T04:46:37.309Z,64.84
2022-10-05T04:47:38.545Z,64.82
2022-10-05T04:48:36.268Z,64.83
2022-10-05T04:49:42.826Z,64.83
2022-10-05T04:50:36.321Z,64.82
2022-10-05T04:51:58.729Z,64.82
2022-10-05T04:52:36.260Z,64.80
2022-10-05T04:53:37.196Z,64.80
2022-10-05T04:54:36.254Z,64.80
2022-10-05T04:55:58.090Z,64.80
2022-10-05T04:56:36.458Z,64.82
2022-10-05T04:57:36.589Z,64.81
2022-10-05T04:58:41.435Z,64.82
2022-10-05T04:59:39.449Z,64.80
2022-10-05T05:00:42.881Z,64.82
2022-10-05T05:01:42.464Z,64.82
2022-10-05T05:02:37.254Z,64.84
2022-10-05T05:03:36.241Z,64.83
2022-10-05T05:04:37.108Z,64.84
2022-10-05T05:05:44.559Z,64.86
2022-10-05T05:06:37.874Z,64.86
2022-10-05T05:07:43.581Z,64.88
2022-10-05T05:08:35.988Z,64.86
2022-10-05T05:09:36.008Z,64.85
2022-10-05T05:10:35.970Z,64.83
2022-10-05T05:11:36.221Z,64.82
2022-10-05T05:12:43.422Z,64.80
2022-10-05T05:13:36.778Z,64.78
2022-10-05T05:14:35.881Z,64.76
2022-10-05T05:15:36.513Z,64.73
2022-10-05T05:16:36.154Z,64.73
2022-10-05T05:17:42.257Z,64.70
2022-10-05T05:18:35.824Z,64.67
2022-10-05T05:19:35.869Z,64.66
2022-10-05T05:20:35.934Z,64.62
2022-10-05T05:21:36.921Z,64.62
2022-10-05T05:22:36.824Z,64.63
2022-10-05T05:23:42.085Z,64.61
2022-10-05T05:24:36.511Z,64.60
2022-10-05T05:25:35.824Z,64.59
2022-10-05T05:26:45.398Z,64.58
2022-10-05T05:27:37.322Z,64.53
2022-10-05T05:28:35.870Z,64.54
2022-10-05T05:29:42.300Z,64.52
2022-10-05T05:30:35.744Z,64.52
2022-10-05T05:31:36.347Z,64.50
2022-10-05T05:32:38.438Z,64.50
2022-10-05T05:33:36.815Z,64.48
2022-10-05T05:34:35.968Z,64.49
2022-10-05T05:35:45.963Z,64.47
2022-10-05T05:36:36.613Z,64.47
2022-10-05T05:37:35.758Z,64.47
2022-10-05T05:38:36.747Z,64.44
2022-10-05T05:39:35.615Z,64.43
2022-10-05T05:40:41.974Z,64.41
2022-10-05T05:41:35.572Z,64.40
2022-10-05T05:42:57.352Z,64.38
2022-10-05T05:43:35.492Z,64.37
2022-10-05T05:44:38.809Z,64.35
2022-10-05T05:45:41.812Z,64.33
2022-10-05T05:47:01.844Z,64.31
2022-10-05T05:47:36.524Z,64.28
2022-10-05T05:48:35.447Z,64.24
2022-10-05T05:49:35.406Z,64.19
2022-10-05T05:50:41.711Z,64.17
2022-10-05T05:51:56.482Z,64.15
2022-10-05T05:52:35.701Z,64.11
2022-10-05T05:53:35.393Z,64.06
2022-10-05T05:54:35.598Z,64.04
2022-10-05T05:56:19.107Z,63.56
2022-10-05T05:57:19.157Z,63.97
2022-10-05T05:58:21.478Z,63.95
2022-10-05T05:59:19.039Z,63.93
2022-10-05T06:00:25.661Z,63.90
2022-10-05T06:01:32.225Z,63.85
2022-10-05T06:02:20.712Z,63.84
2022-10-05T06:03:19.132Z,63.82
2022-10-05T06:04:19.078Z,63.79
2022-10-05T06:05:19.305Z,63.77
2022-10-05T06:06:25.867Z,63.74
2022-10-05T06:07:18.958Z,63.71
2022-10-05T06:08:40.013Z,63.69
2022-10-05T06:09:19.993Z,63.67
2022-10-05T06:10:18.930Z,63.65
2022-10-05T06:11:25.238Z,63.64
2022-10-05T06:12:18.953Z,63.60
2022-10-05T06:13:18.920Z,63.56
2022-10-05T06:14:18.864Z,63.55
2022-10-05T06:15:18.875Z,63.51
2022-10-05T06:16:18.953Z,63.49
2022-10-05T06:17:25.440Z,63.45
2022-10-05T06:18:18.835Z,63.42
2022-10-05T06:19:18.806Z,63.41
2022-10-05T06:20:19.024Z,63.38
2022-10-05T06:21:18.832Z,63.36
2022-10-05T06:22:25.492Z,63.36
2022-10-05T06:23:19.027Z,63.34
2022-10-05T06:24:18.853Z,63.34
2022-10-05T06:25:19.412Z,63.34
2022-10-05T06:26:19.694Z,63.31
2022-10-05T06:27:25.991Z,63.29
2022-10-05T06:28:18.756Z,63.26
2022-10-05T06:29:18.774Z,63.20
2022-10-05T06:30:18.694Z,63.18
2022-10-05T06:31:18.803Z,63.13
2022-10-05T06:32:18.681Z,63.10
2022-10-05T06:33:24.982Z,63.07
2022-10-05T06:34:18.677Z,63.01
2022-10-05T06:35:18.631Z,62.98
2022-10-05T06:36:19.191Z,62.97
2022-10-05T06:37:20.401Z,62.93
2022-10-05T06:38:18.592Z,62.92
2022-10-05T06:39:24.892Z,62.89
2022-10-05T06:40:18.560Z,62.87
2022-10-05T06:41:18.577Z,62.83
2022-10-05T06:42:18.570Z,62.78
2022-10-05T06:43:18.554Z,62.74
2022-10-05T06:44:28.710Z,62.73
2022-10-05T06:45:18.574Z,62.71
2022-10-05T06:46:18.574Z,62.69
2022-10-05T06:47:18.476Z,62.68
2022-10-05T06:48:18.475Z,62.69
2022-10-05T06:49:18.445Z,62.67
2022-10-05T06:50:24.711Z,62.66
2022-10-05T06:51:18.451Z,62.65
2022-10-05T06:52:18.484Z,62.63
2022-10-05T06:53:18.422Z,62.61
2022-10-05T06:54:18.434Z,62.60
2022-10-05T06:55:18.374Z,62.58
2022-10-05T06:56:24.705Z,62.54
2022-10-05T06:57:18.825Z,62.48
2022-10-05T06:58:18.346Z,62.41
2022-10-05T06:59:18.429Z,62.35
2022-10-05T07:00:18.336Z,62.28
2022-10-05T07:01:25.040Z,62.21
2022-10-05T07:02:18.442Z,62.13
2022-10-05T07:03:18.613Z,62.07
2022-10-05T07:04:18.314Z,62.03
2022-10-05T07:05:18.316Z,62.02
2022-10-05T07:06:18.228Z,62.03
2022-10-05T07:07:25.561Z,62.04
2022-10-05T07:08:18.664Z,62.09
2022-10-05T07:09:18.190Z,62.09
2022-10-05T07:10:18.303Z,62.15
2022-10-05T07:11:18.150Z,62.17
2022-10-05T07:12:18.239Z,62.20
2022-10-05T07:13:24.440Z,62.24
2022-10-05T07:14:18.182Z,62.29
2022-10-05T07:15:18.193Z,62.32
2022-10-05T07:16:18.413Z,62.36
2022-10-05T07:17:18.175Z,62.37
2022-10-05T07:18:18.061Z,62.37
2022-10-05T07:19:24.369Z,62.37
2022-10-05T07:20:18.076Z,62.38
2022-10-05T07:21:18.141Z,62.40
2022-10-05T07:22:18.153Z,62.40
2022-10-05T07:23:18.961Z,62.41
2022-10-05T07:24:24.309Z,62.44
2022-10-05T07:25:17.997Z,62.42
2022-10-05T07:26:18.002Z,62.42
2022-10-05T07:27:18.079Z,62.40
2022-10-05T07:28:18.149Z,62.39
2022-10-05T07:29:24.741Z,62.38
2022-10-05T07:30:17.982Z,62.36
2022-10-05T07:31:18.074Z,62.36
2022-10-05T07:32:17.992Z,62.32
2022-10-05T07:33:17.903Z,62.27
2022-10-05T07:34:17.884Z,62.19
2022-10-05T07:35:24.170Z,62.14
2022-10-05T07:36:17.867Z,62.08
2022-10-05T07:37:17.864Z,62.03
2022-10-05T07:38:17.807Z,61.96
2022-10-05T07:39:17.831Z,61.92
2022-10-05T07:40:24.101Z,61.86
2022-10-05T07:41:17.830Z,61.80
2022-10-05T07:42:17.779Z,61.75
2022-10-05T07:43:17.773Z,61.65
2022-10-05T07:44:17.927Z,61.56
2022-10-05T07:45:24.068Z,61.49
2022-10-05T07:46:17.732Z,61.40
2022-10-05T07:47:17.724Z,61.35
2022-10-05T07:48:17.671Z,61.31
2022-10-05T07:49:17.677Z,61.26
2022-10-05T07:50:17.668Z,61.24
2022-10-05T07:51:23.938Z,61.20
2022-10-05T07:52:17.672Z,61.17
2022-10-05T07:53:17.632Z,61.18
2022-10-05T07:54:17.633Z,61.17
2022-10-05T07:55:18.503Z,61.12
2022-10-05T07:56:23.908Z,61.08
2022-10-05T07:57:17.626Z,61.01
2022-10-05T07:58:17.621Z,60.93
2022-10-05T07:59:18.584Z,60.85
2022-10-05T08:00:17.538Z,60.75
2022-10-05T08:01:17.558Z,60.65
2022-10-05T08:02:25.888Z,60.57
2022-10-05T08:03:17.859Z,60.46
2022-10-05T08:04:17.579Z,60.37
2022-10-05T08:05:17.530Z,60.30
2022-10-05T08:06:18.238Z,60.28
2022-10-05T08:07:17.544Z,60.27
2022-10-05T08:08:23.782Z,60.30
2022-10-05T08:09:17.498Z,60.31
2022-10-05T08:10:17.890Z,60.36
2022-10-05T08:11:17.441Z,60.38
2022-10-05T08:12:17.457Z,60.37
2022-10-05T08:13:24.071Z,60.34
2022-10-05T08:14:17.455Z,60.27
2022-10-05T08:15:17.391Z,60.18
2022-10-05T08:16:17.577Z,60.05
2022-10-05T08:17:18.591Z,59.93
2022-10-05T08:18:18.257Z,59.81
2022-10-05T08:19:23.997Z,59.71
2022-10-05T08:20:17.329Z,59.58
2022-10-05T08:21:17.356Z,59.47
2022-10-05T08:22:17.317Z,59.33
2022-10-05T08:23:18.395Z,59.24
2022-10-05T08:24:17.339Z,59.18
2022-10-05T08:25:23.646Z,59.16
2022-10-05T08:26:17.530Z,59.16
2022-10-05T08:27:17.340Z,59.16
2022-10-05T08:28:17.623Z,59.16
2022-10-05T08:29:24.352Z,59.13
2022-10-05T08:30:24.698Z,59.16
2022-10-05T08:31:17.530Z,59.22
2022-10-05T08:32:17.561Z,59.24
2022-10-05T08:33:17.113Z,59.30
2022-10-05T08:34:17.840Z,59.34
2022-10-05T08:35:17.405Z,59.38
2022-10-05T08:36:25.326Z,59.42
2022-10-05T08:37:17.256Z,59.49
2022-10-05T08:38:18.436Z,59.57
2022-10-05T08:39:17.189Z,59.66
2022-10-05T08:40:17.421Z,59.76
2022-10-05T08:41:24.362Z,59.85
2022-10-05T08:42:17.224Z,59.93
2022-10-05T08:43:17.419Z,59.99
2022-10-05T08:44:18.109Z,60.02
2022-10-05T08:45:17.243Z,60.02
2022-10-05T08:46:18.113Z,59.96
2022-10-05T08:47:24.614Z,59.89
2022-10-05T08:48:17.495Z,59.84
2022-10-05T08:49:17.094Z,59.74
2022-10-05T08:50:17.232Z,59.68
2022-10-05T08:51:17.004Z,59.62
2022-10-05T08:52:18.081Z,59.61
2022-10-05T08:53:23.598Z,59.63
2022-10-05T08:54:17.260Z,59.63
2022-10-05T08:55:16.927Z,59.65
2022-10-05T08:56:20.844Z,59.69
2022-10-05T08:57:17.321Z,59.71
2022-10-05T08:58:24.403Z,59.71
2022-10-05T08:59:16.927Z,59.70
2022-10-05T09:00:18.262Z,59.70
2022-10-05T09:01:16.874Z,59.67
2022-10-05T09:02:16.907Z,59.64
2022-10-05T09:03:23.160Z,59.58
2022-10-05T09:04:23.122Z,59.51
2022-10-05T09:05:17.195Z,59.46
2022-10-05T09:06:38.675Z,59.41
2022-10-05T09:07:17.758Z,59.31
2022-10-05T09:08:24.291Z,59.22
2022-10-05T09:09:18.776Z,59.14
2022-10-05T09:10:17.371Z,59.07
2022-10-05T09:11:16.745Z,59.00
2022-10-05T09:12:17.698Z,58.97
2022-10-05T09:13:17.169Z,58.88
2022-10-05T09:14:23.219Z,58.82
2022-10-05T09:15:31.779Z,58.77
2022-10-05T09:16:19.077Z,58.70
2022-10-05T09:17:18.498Z,58.63
2022-10-05T09:18:17.531Z,58.58
2022-10-05T09:19:16.629Z,58.56
2022-10-05T09:20:23.161Z,58.51
2022-10-05T09:21:18.588Z,58.49
2022-10-05T09:22:17.981Z,58.42
2022-10-05T09:23:16.656Z,58.37
2022-10-05T09:24:16.480Z,58.31
2022-10-05T09:25:16.590Z,58.22
2022-10-05T09:26:23.118Z,58.19
2022-10-05T09:27:16.659Z,58.14
2022-10-05T09:28:17.733Z,58.13
2022-10-05T09:29:16.518Z,58.11
2022-10-05T09:30:16.457Z,58.06
2022-10-05T09:31:17.601Z,58.00
2022-10-05T09:32:22.879Z,57.95
2022-10-05T09:33:17.477Z,57.90
2022-10-05T09:34:16.997Z,57.84
2022-10-05T09:35:16.965Z,57.79
2022-10-05T09:36:17.443Z,57.76
2022-10-05T09:37:22.991Z,57.76
2022-10-05T09:38:17.263Z,57.79
2022-10-05T09:39:20.479Z,57.83
2022-10-05T09:40:17.566Z,57.90
2022-10-05T09:41:16.602Z,57.95
2022-10-05T09:42:16.981Z,58.01
2022-10-05T09:43:23.843Z,58.05
2022-10-05T09:44:16.882Z,58.09
2022-10-05T09:45:21.211Z,58.13
2022-10-05T09:46:17.433Z,58.17
2022-10-05T09:47:16.619Z,58.17
2022-10-05T09:48:23.796Z,58.21
2022-10-05T09:49:22.489Z,58.21
2022-10-05T09:50:18.032Z,58.20
2022-10-05T09:51:17.180Z,58.20
2022-10-05T09:52:18.931Z,58.18
2022-10-05T09:53:25.976Z,58.17
2022-10-05T09:54:16.460Z,58.17
2022-10-05T09:55:16.135Z,58.19
2022-10-05T09:56:17.359Z,58.18
2022-10-05T09:57:16.237Z,58.19
2022-10-05T09:58:16.427Z,58.18
2022-10-05T09:59:24.584Z,58.20
2022-10-05T10:00:16.197Z,58.24
2022-10-05T10:01:32.742Z,58.29
2022-10-05T10:02:17.910Z,58.35
2022-10-05T10:03:16.279Z,58.44
2022-10-05T10:04:22.720Z,58.54
2022-10-05T10:05:18.500Z,58.68
2022-10-05T10:06:16.058Z,58.82
2022-10-05T10:07:16.277Z,58.94
2022-10-05T10:08:15.976Z,59.07
2022-10-05T10:09:23.502Z,59.19
2022-10-05T10:10:17.027Z,59.33
2022-10-05T10:11:19.037Z,59.42
2022-10-05T10:12:16.004Z,59.50
2022-10-05T10:13:16.173Z,59.60
2022-10-05T10:14:15.988Z,59.72
2022-10-05T10:15:22.171Z,59.83
2022-10-05T10:16:16.033Z,59.96
2022-10-05T10:17:15.847Z,60.09
2022-10-05T10:18:15.841Z,60.20
2022-10-05T10:19:15.765Z,60.32
2022-10-05T10:20:16.084Z,60.41
2022-10-05T10:21:24.769Z,60.46
2022-10-05T10:22:16.213Z,60.51
2022-10-05T10:23:15.692Z,60.58
2022-10-05T10:24:16.827Z,60.64
2022-10-05T10:25:17.127Z,60.70
2022-10-05T10:26:15.722Z,60.74
2022-10-05T10:27:22.063Z,60.77
2022-10-05T10:28:15.732Z,60.80
2022-10-05T10:29:15.718Z,60.82
2022-10-05T10:30:15.763Z,60.79
2022-10-05T10:31:16.611Z,60.79
2022-10-05T10:32:24.970Z,60.79
2022-10-05T10:33:15.619Z,60.79
2022-10-05T10:34:16.629Z,60.77
2022-10-05T10:35:15.733Z,60.76
2022-10-05T10:36:16.721Z,60.73
2022-10-05T10:37:16.026Z,60.68
2022-10-05T10:38:23.309Z,60.65
2022-10-05T10:39:15.849Z,60.60
2022-10-05T10:40:15.598Z,60.51
2022-10-05T10:41:16.302Z,60.43
2022-10-05T10:42:15.522Z,60.32
2022-10-05T10:43:15.833Z,60.22
2022-10-05T10:44:22.122Z,60.14
2022-10-05T10:45:15.842Z,60.02
2022-10-05T10:46:15.583Z,59.95
2022-10-05T10:47:15.592Z,59.88
2022-10-05T10:48:15.445Z,59.90
2022-10-05T10:49:15.392Z,59.93
2022-10-05T10:50:21.688Z,59.97
2022-10-05T10:51:15.454Z,60.03
2022-10-05T10:52:15.390Z,60.09
2022-10-05T10:53:15.474Z,60.15
2022-10-05T10:54:15.495Z,60.21
2022-10-05T10:55:21.661Z,60.23
2022-10-05T10:56:15.598Z,60.32
2022-10-05T10:57:15.314Z,60.39
2022-10-05T10:58:16.358Z,60.47
2022-10-05T10:59:15.260Z,60.54
2022-10-05T11:00:15.271Z,60.51
2022-10-05T11:01:21.604Z,60.49
2022-10-05T11:02:15.287Z,60.48
2022-10-05T11:03:15.246Z,60.47
2022-10-05T11:04:19.366Z,60.46
2022-10-05T11:05:16.041Z,60.44
2022-10-05T11:06:16.795Z,60.44
2022-10-05T11:07:21.536Z,60.42
2022-10-05T11:08:15.938Z,60.43
2022-10-05T11:09:15.142Z,60.46
2022-10-05T11:10:15.285Z,60.54
2022-10-05T11:11:22.594Z,60.64
2022-10-05T11:12:15.221Z,60.77
2022-10-05T11:13:21.371Z,60.84
2022-10-05T11:14:15.185Z,60.86
2022-10-05T11:15:15.211Z,60.83
2022-10-05T11:16:18.809Z,60.81
2022-10-05T11:17:15.391Z,60.75
2022-10-05T11:18:14.990Z,60.70
2022-10-05T11:19:21.707Z,60.63
2022-10-05T11:20:15.989Z,60.57
2022-10-05T11:21:16.151Z,60.51
2022-10-05T11:22:15.131Z,60.43
2022-10-05T11:23:15.047Z,60.35
2022-10-05T11:24:14.984Z,60.21
2022-10-05T11:25:21.392Z,60.06
2022-10-05T11:26:15.012Z,59.94
2022-10-05T11:27:15.283Z,59.78
2022-10-05T11:28:15.142Z,59.65
2022-10-05T11:29:16.173Z,59.54
2022-10-05T11:30:15.090Z,59.46
2022-10-05T11:31:21.256Z,59.44
2022-10-05T11:32:15.971Z,59.47
2022-10-05T11:33:14.888Z,59.51
2022-10-05T11:34:15.894Z,59.55
2022-10-05T11:35:15.992Z,59.56
2022-10-05T11:36:14.932Z,59.55
2022-10-05T11:37:21.170Z,59.50
2022-10-05T11:38:15.338Z,59.45
2022-10-05T11:39:15.072Z,59.45
2022-10-05T11:40:14.780Z,59.42
2022-10-05T11:41:14.703Z,59.35
2022-10-05T11:42:21.157Z,59.33
2022-10-05T11:43:14.720Z,59.29
2022-10-05T11:44:14.758Z,59.28
2022-10-05T11:45:15.798Z,59.33
2022-10-05T11:46:15.807Z,59.37
2022-10-05T11:47:21.038Z,59.43
2022-10-05T11:48:14.664Z,59.47
2022-10-05T11:49:15.737Z,59.48
2022-10-05T11:50:14.647Z,59.47
2022-10-05T11:51:14.908Z,59.42
2022-10-05T11:52:14.666Z,59.31
2022-10-05T11:53:21.888Z,59.19
2022-10-05T11:54:14.537Z,59.04
2022-10-05T11:55:14.738Z,58.85
2022-10-05T11:56:14.490Z,58.69
2022-10-05T11:57:14.571Z,58.55
2022-10-05T11:58:21.479Z,58.43
2022-10-05T11:59:14.660Z,58.30
2022-10-05T12:00:14.697Z,58.17
2022-10-05T12:01:14.548Z,58.05
2022-10-05T12:02:15.260Z,57.95
2022-10-05T12:03:20.914Z,57.90
2022-10-05T12:04:14.623Z,57.87
2022-10-05T12:05:15.495Z,57.90
2022-10-05T12:06:14.761Z,57.98
2022-10-05T12:07:14.518Z,58.15
2022-10-05T12:08:14.386Z,58.35
2022-10-05T12:09:21.171Z,58.56
2022-10-05T12:10:14.423Z,58.80
2022-10-05T12:11:14.922Z,59.04
2022-10-05T12:12:14.325Z,59.21
2022-10-05T12:13:14.448Z,59.35
2022-10-05T12:14:14.325Z,59.49
2022-10-05T12:15:20.646Z,59.60
2022-10-05T12:16:15.610Z,59.68
2022-10-05T12:17:14.286Z,59.73
2022-10-05T12:18:14.405Z,59.83
2022-10-05T12:19:14.351Z,59.89
2022-10-05T12:20:20.560Z,59.92
2022-10-05T12:21:14.329Z,59.94
2022-10-05T12:22:14.188Z,59.93
2022-10-05T12:23:15.715Z,59.91
2022-10-05T12:24:14.489Z,59.88
2022-10-05T12:25:20.495Z,59.85
2022-10-05T12:26:15.223Z,59.80
2022-10-05T12:27:14.176Z,59.75
2022-10-05T12:28:14.521Z,59.72
2022-10-05T12:29:14.075Z,59.70
2022-10-05T12:30:20.377Z,59.70
2022-10-05T12:31:14.261Z,59.68
2022-10-05T12:32:14.131Z,59.66
2022-10-05T12:33:14.473Z,59.65
2022-10-05T12:34:14.010Z,59.64
2022-10-05T12:35:29.729Z,59.61
2022-10-05T12:36:21.656Z,59.58
2022-10-05T12:37:16.548Z,59.56
2022-10-05T12:38:14.632Z,59.55
2022-10-05T12:39:15.732Z,59.52
2022-10-05T12:40:17.497Z,59.48
2022-10-05T12:41:14.110Z,59.45
2022-10-05T12:42:21.022Z,59.41
2022-10-05T12:43:14.225Z,59.37
2022-10-05T12:44:14.899Z,59.32
2022-10-05T12:45:14.428Z,59.27
2022-10-05T12:46:16.606Z,59.20
2022-10-05T12:47:20.358Z,59.09
2022-10-05T12:48:14.658Z,58.97
2022-10-05T12:49:20.307Z,58.82
2022-10-05T12:50:20.736Z,58.61
2022-10-05T12:51:14.178Z,58.33
2022-10-05T12:52:14.758Z,57.88
2022-10-05T12:53:21.358Z,56.50
2022-10-05T12:54:14.211Z,53.46